SBOSBO IOM / EGNS
Speedbird OnlineSpeedbird Online IOM / EGNS

Isle of Man Airport
09:20 15°C

Location Isle Of Man, Isle of Man
Latitude: 54.08330154418945
Longitude: -4.623889923095703
Local Time 09:20 on 18 Jul 2024
UTC +1 hours (Europe/Isle_of_Man)
METAR EGNS 180750Z 18010KT 9999 -RA FEW004 SCT009 BKN030 15/14 Q1017 TEMPO 7000 BKN007
TAF TAF EGNS 180500Z 1806/1815 18010KT 9999 FEW004 SCT007 BKN015 BECMG 1806/1809 18015G25KT TEMPO 1806/1815 7000 -RA BKN007 PROB30 TEMPO 1806/1815 4000 RADZ BKN004
Weather As Of 18 Jul 2024 09:20
Description Broken clouds
Wind 19 km/h from South (180°)
Cloud Cover 75%
Precipitation Rain: none, Snow: none
Sunrise 05:09
Sunset 21:39
Web Airport Website | Wikipedia
Codes IATA: IOM
ICAO: EGNS
Altitude 16 Meter / 52 Feet
Distance 430 KM / 267 Miles
from London.
Runways
RunwayLength (m)Surface
031199Asphalt
081753Asphalt
17903Asphalt
211199Asphalt
261753Asphalt
35903Asphalt
Radio
TypeDescriptionFrequency
APPRonaldsway Approach135.9
ATISRonaldsway Information123.875
RADRonaldsway Radar120.85
RADRonaldsway Radar125.3
RADRonaldsway Radar135.9
TWRRonaldsway Tower119
Live ATC



Support Speedbird Online

© 2017-2024 Speedbird Online